sensor_id;sensor_type;location;lat;lon;timestamp;P1;durP1;ratioP1;P2;durP2;ratioP2
47173;SDS011;36730;49.036;9.094;2022-09-29T00:01:45;141.47;;;61.40;;
47173;SDS011;36730;49.036;9.094;2022-09-29T00:04:11;126.87;;;64.53;;
47173;SDS011;36730;49.036;9.094;2022-09-29T00:06:36;124.57;;;60.23;;
47173;SDS011;36730;49.036;9.094;2022-09-29T00:09:02;132.77;;;65.33;;
47173;SDS011;36730;49.036;9.094;2022-09-29T00:11:27;132.05;;;64.72;;
47173;SDS011;36730;49.036;9.094;2022-09-29T00:13:53;136.33;;;65.67;;
47173;SDS011;36730;49.036;9.094;2022-09-29T00:16:19;139.83;;;68.50;;
47173;SDS011;36730;49.036;9.094;2022-09-29T00:18:45;146.20;;;71.28;;
47173;SDS011;36730;49.036;9.094;2022-09-29T00:21:14;125.57;;;65.80;;
47173;SDS011;36730;49.036;9.094;2022-09-29T00:23:43;136.15;;;64.00;;
47173;SDS011;36730;49.036;9.094;2022-09-29T00:26:16;153.48;;;73.45;;
47173;SDS011;36730;49.036;9.094;2022-09-29T00:28:48;139.88;;;66.60;;
47173;SDS011;36730;49.036;9.094;2022-09-29T00:31:19;144.23;;;69.00;;
47173;SDS011;36730;49.036;9.094;2022-09-29T00:33:45;143.55;;;69.25;;
47173;SDS011;36730;49.036;9.094;2022-09-29T00:36:12;139.15;;;67.20;;
47173;SDS011;36730;49.036;9.094;2022-09-29T00:38:40;136.35;;;69.57;;
47173;SDS011;36730;49.036;9.094;2022-09-29T00:41:06;143.48;;;67.07;;
47173;SDS011;36730;49.036;9.094;2022-09-29T00:43:46;139.30;;;68.07;;
47173;SDS011;36730;49.036;9.094;2022-09-29T00:46:37;134.68;;;65.13;;
47173;SDS011;36730;49.036;9.094;2022-09-29T00:52:04;132.95;;;67.63;;
47173;SDS011;36730;49.036;9.094;2022-09-29T00:55:18;125.20;;;63.30;;
47173;SDS011;36730;49.036;9.094;2022-09-29T00:57:49;131.65;;;66.78;;
47173;SDS011;36730;49.036;9.094;2022-09-29T01:00:23;128.55;;;63.47;;
47173;SDS011;36730;49.036;9.094;2022-09-29T01:02:52;134.38;;;61.70;;
47173;SDS011;36730;49.036;9.094;2022-09-29T01:05:25;130.75;;;64.05;;
47173;SDS011;36730;49.036;9.094;2022-09-29T01:07:56;122.97;;;64.28;;
47173;SDS011;36730;49.036;9.094;2022-09-29T01:10:25;120.53;;;61.25;;
47173;SDS011;36730;49.036;9.094;2022-09-29T01:15:17;127.65;;;60.50;;
47173;SDS011;36730;49.036;9.094;2022-09-29T01:17:44;133.27;;;63.55;;
47173;SDS011;36730;49.036;9.094;2022-09-29T01:25:52;134.38;;;64.57;;
47173;SDS011;36730;49.036;9.094;2022-09-29T01:28:45;152.07;;;68.07;;
47173;SDS011;36730;49.036;9.094;2022-09-29T01:31:48;150.20;;;69.75;;
47173;SDS011;36730;49.036;9.094;2022-09-29T01:34:48;151.50;;;71.88;;
47173;SDS011;36730;49.036;9.094;2022-09-29T01:37:20;145.40;;;70.20;;
47173;SDS011;36730;49.036;9.094;2022-09-29T01:40:04;145.00;;;66.72;;
47173;SDS011;36730;49.036;9.094;2022-09-29T01:42:49;141.13;;;69.40;;
47173;SDS011;36730;49.036;9.094;2022-09-29T01:47:57;150.18;;;69.70;;
47173;SDS011;36730;49.036;9.094;2022-09-29T01:50:31;144.50;;;70.43;;
47173;SDS011;36730;49.036;9.094;2022-09-29T01:53:06;143.93;;;70.88;;
47173;SDS011;36730;49.036;9.094;2022-09-29T01:55:37;147.73;;;71.65;;
47173;SDS011;36730;49.036;9.094;2022-09-29T01:58:09;144.88;;;68.28;;
47173;SDS011;36730;49.036;9.094;2022-09-29T02:00:41;143.38;;;69.65;;
47173;SDS011;36730;49.036;9.094;2022-09-29T02:03:20;147.20;;;68.85;;
47173;SDS011;36730;49.036;9.094;2022-09-29T02:06:06;145.45;;;67.78;;
47173;SDS011;36730;49.036;9.094;2022-09-29T02:08:48;140.57;;;68.60;;
47173;SDS011;36730;49.036;9.094;2022-09-29T02:11:18;152.55;;;68.78;;
47173;SDS011;36730;49.036;9.094;2022-09-29T02:13:58;139.38;;;70.32;;
47173;SDS011;36730;49.036;9.094;2022-09-29T02:16:30;145.15;;;70.70;;
47173;SDS011;36730;49.036;9.094;2022-09-29T02:19:01;128.73;;;65.97;;
47173;SDS011;36730;49.036;9.094;2022-09-29T02:21:32;137.25;;;65.70;;
47173;SDS011;36730;49.036;9.094;2022-09-29T02:23:58;137.40;;;68.87;;
47173;SDS011;36730;49.036;9.094;2022-09-29T02:26:24;133.90;;;64.20;;
47173;SDS011;36730;49.036;9.094;2022-09-29T02:28:55;131.80;;;65.45;;
47173;SDS011;36730;49.036;9.094;2022-09-29T02:31:21;138.65;;;66.35;;
47173;SDS011;36730;49.036;9.094;2022-09-29T02:33:47;138.00;;;65.47;;
47173;SDS011;36730;49.036;9.094;2022-09-29T02:44:46;138.43;;;70.50;;
47173;SDS011;36730;49.036;9.094;2022-09-29T02:57:52;164.13;;;79.05;;
47173;SDS011;36730;49.036;9.094;2022-09-29T03:00:23;153.57;;;75.55;;
47173;SDS011;36730;49.036;9.094;2022-09-29T03:02:50;143.55;;;75.75;;
47173;SDS011;36730;49.036;9.094;2022-09-29T03:05:17;159.77;;;76.80;;
47173;SDS011;36730;49.036;9.094;2022-09-29T03:07:45;152.40;;;75.47;;
47173;SDS011;36730;49.036;9.094;2022-09-29T03:10:11;149.48;;;73.38;;
47173;SDS011;36730;49.036;9.094;2022-09-29T03:12:38;141.40;;;74.30;;
47173;SDS011;36730;49.036;9.094;2022-09-29T03:15:05;144.45;;;73.88;;
47173;SDS011;36730;49.036;9.094;2022-09-29T03:17:31;152.07;;;76.38;;
47173;SDS011;36730;49.036;9.094;2022-09-29T03:19:57;138.73;;;72.90;;
47173;SDS011;36730;49.036;9.094;2022-09-29T03:22:23;144.77;;;72.47;;
47173;SDS011;36730;49.036;9.094;2022-09-29T03:24:49;157.40;;;73.53;;
47173;SDS011;36730;49.036;9.094;2022-09-29T03:27:14;146.03;;;72.83;;
47173;SDS011;36730;49.036;9.094;2022-09-29T03:29:40;143.82;;;70.82;;
47173;SDS011;36730;49.036;9.094;2022-09-29T03:32:06;143.60;;;72.90;;
47173;SDS011;36730;49.036;9.094;2022-09-29T03:34:32;151.67;;;73.03;;
47173;SDS011;36730;49.036;9.094;2022-09-29T03:36:57;136.13;;;67.07;;
47173;SDS011;36730;49.036;9.094;2022-09-29T03:39:24;140.25;;;70.72;;
47173;SDS011;36730;49.036;9.094;2022-09-29T03:41:50;142.45;;;69.50;;
47173;SDS011;36730;49.036;9.094;2022-09-29T03:44:15;134.88;;;67.88;;
47173;SDS011;36730;49.036;9.094;2022-09-29T03:46:41;139.97;;;70.47;;
47173;SDS011;36730;49.036;9.094;2022-09-29T03:49:10;131.03;;;66.73;;
47173;SDS011;36730;49.036;9.094;2022-09-29T03:51:36;132.80;;;65.68;;
47173;SDS011;36730;49.036;9.094;2022-09-29T03:58:53;148.53;;;71.37;;
47173;SDS011;36730;49.036;9.094;2022-09-29T04:01:19;137.47;;;68.43;;
47173;SDS011;36730;49.036;9.094;2022-09-29T04:03:44;134.30;;;68.43;;
47173;SDS011;36730;49.036;9.094;2022-09-29T04:06:10;143.68;;;71.35;;
47173;SDS011;36730;49.036;9.094;2022-09-29T04:08:36;133.40;;;70.20;;
47173;SDS011;36730;49.036;9.094;2022-09-29T04:11:03;151.07;;;74.93;;
47173;SDS011;36730;49.036;9.094;2022-09-29T04:13:29;153.15;;;73.90;;
47173;SDS011;36730;49.036;9.094;2022-09-29T04:15:58;145.27;;;74.68;;
47173;SDS011;36730;49.036;9.094;2022-09-29T04:18:25;139.40;;;70.93;;
47173;SDS011;36730;49.036;9.094;2022-09-29T04:20:51;138.87;;;73.93;;
47173;SDS011;36730;49.036;9.094;2022-09-29T04:23:18;151.23;;;75.60;;
47173;SDS011;36730;49.036;9.094;2022-09-29T04:25:44;137.48;;;72.22;;
47173;SDS011;36730;49.036;9.094;2022-09-29T04:28:10;135.77;;;69.83;;
47173;SDS011;36730;49.036;9.094;2022-09-29T04:30:35;133.70;;;71.32;;
47173;SDS011;36730;49.036;9.094;2022-09-29T04:33:01;155.90;;;77.00;;
47173;SDS011;36730;49.036;9.094;2022-09-29T04:35:27;146.23;;;77.10;;
47173;SDS011;36730;49.036;9.094;2022-09-29T04:37:53;154.97;;;75.47;;
47173;SDS011;36730;49.036;9.094;2022-09-29T04:40:21;135.85;;;71.03;;
47173;SDS011;36730;49.036;9.094;2022-09-29T04:42:47;144.23;;;71.95;;
47173;SDS011;36730;49.036;9.094;2022-09-29T04:45:13;179.03;;;83.57;;
47173;SDS011;36730;49.036;9.094;2022-09-29T04:47:38;136.27;;;73.53;;
47173;SDS011;36730;49.036;9.094;2022-09-29T04:50:04;149.63;;;73.93;;
47173;SDS011;36730;49.036;9.094;2022-09-29T04:52:30;147.82;;;72.82;;
47173;SDS011;36730;49.036;9.094;2022-09-29T04:54:56;156.30;;;75.63;;
47173;SDS011;36730;49.036;9.094;2022-09-29T04:57:21;159.00;;;73.63;;
47173;SDS011;36730;49.036;9.094;2022-09-29T04:59:47;152.27;;;73.13;;
47173;SDS011;36730;49.036;9.094;2022-09-29T05:02:15;173.93;;;81.90;;
47173;SDS011;36730;49.036;9.094;2022-09-29T05:04:42;183.13;;;79.05;;
47173;SDS011;36730;49.036;9.094;2022-09-29T05:07:07;168.77;;;77.43;;
47173;SDS011;36730;49.036;9.094;2022-09-29T05:09:33;187.65;;;79.88;;
47173;SDS011;36730;49.036;9.094;2022-09-29T05:11:59;184.57;;;82.00;;
47173;SDS011;36730;49.036;9.094;2022-09-29T05:14:25;178.43;;;80.82;;
47173;SDS011;36730;49.036;9.094;2022-09-29T05:16:52;191.33;;;83.83;;
47173;SDS011;36730;49.036;9.094;2022-09-29T05:19:19;187.35;;;83.90;;
47173;SDS011;36730;49.036;9.094;2022-09-29T05:21:45;215.60;;;88.83;;
47173;SDS011;36730;49.036;9.094;2022-09-29T05:24:10;220.30;;;89.00;;
47173;SDS011;36730;49.036;9.094;2022-09-29T05:26:36;210.07;;;85.13;;
47173;SDS011;36730;49.036;9.094;2022-09-29T05:29:02;218.50;;;90.20;;
47173;SDS011;36730;49.036;9.094;2022-09-29T05:31:27;224.95;;;86.90;;
47173;SDS011;36730;49.036;9.094;2022-09-29T05:33:54;185.27;;;82.77;;
47173;SDS011;36730;49.036;9.094;2022-09-29T05:36:20;194.43;;;82.63;;
47173;SDS011;36730;49.036;9.094;2022-09-29T05:38:46;209.85;;;89.00;;
47173;SDS011;36730;49.036;9.094;2022-09-29T05:41:12;176.50;;;76.13;;
47173;SDS011;36730;49.036;9.094;2022-09-29T05:43:46;178.75;;;75.07;;
47173;SDS011;36730;49.036;9.094;2022-09-29T05:46:12;192.50;;;76.40;;
47173;SDS011;36730;49.036;9.094;2022-09-29T05:48:39;136.60;;;61.88;;
47173;SDS011;36730;49.036;9.094;2022-09-29T05:51:17;113.27;;;48.33;;
47173;SDS011;36730;49.036;9.094;2022-09-29T05:53:45;131.77;;;54.55;;
47173;SDS011;36730;49.036;9.094;2022-09-29T05:56:12;113.90;;;47.25;;
47173;SDS011;36730;49.036;9.094;2022-09-29T05:58:46;115.57;;;48.97;;
47173;SDS011;36730;49.036;9.094;2022-09-29T06:01:45;113.57;;;51.30;;
47173;SDS011;36730;49.036;9.094;2022-09-29T06:04:03;113.90;;;49.00;;
47173;SDS011;36730;49.036;9.094;2022-09-29T06:06:29;120.03;;;51.73;;
47173;SDS011;36730;49.036;9.094;2022-09-29T06:08:55;150.00;;;58.37;;
47173;SDS011;36730;49.036;9.094;2022-09-29T06:11:26;138.32;;;59.20;;
47173;SDS011;36730;49.036;9.094;2022-09-29T06:13:53;152.93;;;61.05;;
47173;SDS011;36730;49.036;9.094;2022-09-29T06:16:21;141.10;;;58.70;;
47173;SDS011;36730;49.036;9.094;2022-09-29T06:18:52;145.18;;;54.95;;
47173;SDS011;36730;49.036;9.094;2022-09-29T06:21:19;132.73;;;57.67;;
47173;SDS011;36730;49.036;9.094;2022-09-29T06:23:47;140.68;;;61.63;;
47173;SDS011;36730;49.036;9.094;2022-09-29T06:26:14;177.75;;;61.40;;
47173;SDS011;36730;49.036;9.094;2022-09-29T06:28:41;154.10;;;60.38;;
47173;SDS011;36730;49.036;9.094;2022-09-29T06:31:09;168.27;;;61.47;;
47173;SDS011;36730;49.036;9.094;2022-09-29T06:33:36;163.80;;;60.28;;
47173;SDS011;36730;49.036;9.094;2022-09-29T06:36:05;252.80;;;74.63;;
47173;SDS011;36730;49.036;9.094;2022-09-29T06:38:53;187.55;;;62.60;;
47173;SDS011;36730;49.036;9.094;2022-09-29T06:41:19;220.25;;;72.90;;
47173;SDS011;36730;49.036;9.094;2022-09-29T06:43:45;228.80;;;72.95;;
47173;SDS011;36730;49.036;9.094;2022-09-29T06:46:11;221.73;;;72.40;;
47173;SDS011;36730;49.036;9.094;2022-09-29T06:48:36;217.93;;;70.30;;
47173;SDS011;36730;49.036;9.094;2022-09-29T06:51:05;214.57;;;71.40;;
47173;SDS011;36730;49.036;9.094;2022-09-29T06:53:32;240.48;;;79.30;;
47173;SDS011;36730;49.036;9.094;2022-09-29T06:55:57;229.63;;;74.13;;
47173;SDS011;36730;49.036;9.094;2022-09-29T06:58:25;196.77;;;65.20;;
47173;SDS011;36730;49.036;9.094;2022-09-29T07:00:51;198.55;;;68.00;;
47173;SDS011;36730;49.036;9.094;2022-09-29T07:03:16;229.87;;;70.80;;
47173;SDS011;36730;49.036;9.094;2022-09-29T07:05:42;210.00;;;68.47;;
47173;SDS011;36730;49.036;9.094;2022-09-29T07:08:08;348.17;;;102.77;;
47173;SDS011;36730;49.036;9.094;2022-09-29T07:10:34;314.88;;;96.45;;
47173;SDS011;36730;49.036;9.094;2022-09-29T07:12:59;340.63;;;111.43;;
47173;SDS011;36730;49.036;9.094;2022-09-29T07:15:25;265.17;;;91.63;;
47173;SDS011;36730;49.036;9.094;2022-09-29T07:17:57;230.07;;;78.65;;
47173;SDS011;36730;49.036;9.094;2022-09-29T07:20:26;259.60;;;83.82;;
47173;SDS011;36730;49.036;9.094;2022-09-29T07:22:52;241.35;;;86.47;;
47173;SDS011;36730;49.036;9.094;2022-09-29T07:25:18;214.57;;;76.10;;
47173;SDS011;36730;49.036;9.094;2022-09-29T07:27:44;205.82;;;74.32;;
47173;SDS011;36730;49.036;9.094;2022-09-29T07:30:11;194.32;;;71.55;;
47173;SDS011;36730;49.036;9.094;2022-09-29T07:32:37;182.60;;;70.78;;
47173;SDS011;36730;49.036;9.094;2022-09-29T07:35:02;193.30;;;70.03;;
47173;SDS011;36730;49.036;9.094;2022-09-29T07:37:30;180.27;;;71.70;;
47173;SDS011;36730;49.036;9.094;2022-09-29T07:39:55;172.95;;;67.30;;
47173;SDS011;36730;49.036;9.094;2022-09-29T07:42:21;170.77;;;69.50;;
47173;SDS011;36730;49.036;9.094;2022-09-29T07:44:46;178.03;;;72.63;;
47173;SDS011;36730;49.036;9.094;2022-09-29T07:47:12;171.23;;;71.90;;
47173;SDS011;36730;49.036;9.094;2022-09-29T07:49:39;185.75;;;72.40;;
47173;SDS011;36730;49.036;9.094;2022-09-29T07:52:05;201.52;;;76.10;;
47173;SDS011;36730;49.036;9.094;2022-09-29T07:54:31;193.65;;;77.10;;
47173;SDS011;36730;49.036;9.094;2022-09-29T07:56:57;187.17;;;77.07;;
47173;SDS011;36730;49.036;9.094;2022-09-29T07:59:25;185.73;;;75.18;;
47173;SDS011;36730;49.036;9.094;2022-09-29T08:01:51;195.88;;;78.22;;
47173;SDS011;36730;49.036;9.094;2022-09-29T08:04:17;183.40;;;79.15;;
47173;SDS011;36730;49.036;9.094;2022-09-29T08:06:44;187.48;;;80.35;;
47173;SDS011;36730;49.036;9.094;2022-09-29T08:14:02;216.00;;;87.20;;
47173;SDS011;36730;49.036;9.094;2022-09-29T08:16:28;191.70;;;81.77;;
47173;SDS011;36730;49.036;9.094;2022-09-29T08:18:54;193.27;;;81.88;;
47173;SDS011;36730;49.036;9.094;2022-09-29T08:21:20;224.03;;;80.27;;
47173;SDS011;36730;49.036;9.094;2022-09-29T08:23:45;193.90;;;77.07;;
47173;SDS011;36730;49.036;9.094;2022-09-29T08:26:15;204.00;;;81.27;;
47173;SDS011;36730;49.036;9.094;2022-09-29T08:28:41;236.52;;;85.20;;
47173;SDS011;36730;49.036;9.094;2022-09-29T08:31:09;337.63;;;114.60;;
47173;SDS011;36730;49.036;9.094;2022-09-29T08:33:36;247.50;;;93.10;;
47173;SDS011;36730;49.036;9.094;2022-09-29T08:36:02;358.35;;;118.43;;
47173;SDS011;36730;49.036;9.094;2022-09-29T08:38:32;250.13;;;90.53;;
47173;SDS011;36730;49.036;9.094;2022-09-29T08:41:01;240.93;;;88.47;;
47173;SDS011;36730;49.036;9.094;2022-09-29T08:43:30;266.40;;;89.53;;
47173;SDS011;36730;49.036;9.094;2022-09-29T08:46:10;198.70;;;77.68;;
47173;SDS011;36730;49.036;9.094;2022-09-29T08:48:49;185.82;;;74.00;;
47173;SDS011;36730;49.036;9.094;2022-09-29T08:51:33;306.00;;;94.65;;
47173;SDS011;36730;49.036;9.094;2022-09-29T08:54:06;314.88;;;102.18;;
47173;SDS011;36730;49.036;9.094;2022-09-29T08:56:39;254.02;;;92.18;;
47173;SDS011;36730;49.036;9.094;2022-09-29T08:59:07;240.40;;;91.97;;
47173;SDS011;36730;49.036;9.094;2022-09-29T09:07:18;220.85;;;85.93;;
47173;SDS011;36730;49.036;9.094;2022-09-29T09:18:29;314.55;;;106.32;;
47173;SDS011;36730;49.036;9.094;2022-09-29T09:24:04;215.23;;;83.23;;
47173;SDS011;36730;49.036;9.094;2022-09-29T09:26:44;239.07;;;86.82;;
47173;SDS011;36730;49.036;9.094;2022-09-29T09:32:26;196.27;;;78.57;;
47173;SDS011;36730;49.036;9.094;2022-09-29T09:37:18;187.23;;;75.00;;
47173;SDS011;36730;49.036;9.094;2022-09-29T09:40:02;196.07;;;75.85;;
47173;SDS011;36730;49.036;9.094;2022-09-29T09:42:31;176.68;;;68.88;;
47173;SDS011;36730;49.036;9.094;2022-09-29T09:47:30;166.55;;;65.32;;
47173;SDS011;36730;49.036;9.094;2022-09-29T09:50:03;170.20;;;66.07;;
47173;SDS011;36730;49.036;9.094;2022-09-29T09:52:46;158.02;;;63.70;;
47173;SDS011;36730;49.036;9.094;2022-09-29T10:02:42;229.77;;;82.67;;
47173;SDS011;36730;49.036;9.094;2022-09-29T10:05:17;300.92;;;103.45;;
47173;SDS011;36730;49.036;9.094;2022-09-29T10:07:44;252.15;;;91.97;;
47173;SDS011;36730;49.036;9.094;2022-09-29T10:10:16;217.77;;;84.93;;
47173;SDS011;36730;49.036;9.094;2022-09-29T10:12:44;224.50;;;87.78;;
47173;SDS011;36730;49.036;9.094;2022-09-29T10:15:13;205.85;;;77.60;;
47173;SDS011;36730;49.036;9.094;2022-09-29T10:17:44;158.80;;;63.42;;
47173;SDS011;36730;49.036;9.094;2022-09-29T10:20:13;77.97;;;34.28;;
47173;SDS011;36730;49.036;9.094;2022-09-29T10:23:04;57.83;;;25.35;;
47173;SDS011;36730;49.036;9.094;2022-09-29T10:25:54;45.50;;;17.48;;
47173;SDS011;36730;49.036;9.094;2022-09-29T10:28:24;37.20;;;16.30;;
47173;SDS011;36730;49.036;9.094;2022-09-29T10:30:53;38.70;;;16.98;;
47173;SDS011;36730;49.036;9.094;2022-09-29T10:33:19;29.48;;;13.40;;
47173;SDS011;36730;49.036;9.094;2022-09-29T10:35:47;38.10;;;16.25;;
47173;SDS011;36730;49.036;9.094;2022-09-29T10:40:54;25.10;;;11.40;;
47173;SDS011;36730;49.036;9.094;2022-09-29T10:43:27;22.63;;;10.07;;
47173;SDS011;36730;49.036;9.094;2022-09-29T10:45:59;25.02;;;10.30;;
47173;SDS011;36730;49.036;9.094;2022-09-29T10:48:25;29.07;;;11.23;;
47173;SDS011;36730;49.036;9.094;2022-09-29T10:50:58;24.20;;;10.30;;
47173;SDS011;36730;49.036;9.094;2022-09-29T10:53:38;20.10;;;9.20;;
47173;SDS011;36730;49.036;9.094;2022-09-29T10:56:13;114.22;;;20.88;;
47173;SDS011;36730;49.036;9.094;2022-09-29T10:58:51;72.28;;;20.25;;
47173;SDS011;36730;49.036;9.094;2022-09-29T11:01:19;67.68;;;16.88;;
47173;SDS011;36730;49.036;9.094;2022-09-29T11:03:47;106.88;;;24.20;;
47173;SDS011;36730;49.036;9.094;2022-09-29T11:06:16;68.22;;;17.90;;
47173;SDS011;36730;49.036;9.094;2022-09-29T11:09:06;64.68;;;17.77;;
47173;SDS011;36730;49.036;9.094;2022-09-29T11:11:52;81.97;;;19.42;;
47173;SDS011;36730;49.036;9.094;2022-09-29T11:14:23;50.13;;;13.63;;
47173;SDS011;36730;49.036;9.094;2022-09-29T11:16:52;72.40;;;15.35;;
47173;SDS011;36730;49.036;9.094;2022-09-29T11:19:20;180.85;;;35.20;;
47173;SDS011;36730;49.036;9.094;2022-09-29T11:26:53;154.70;;;33.03;;
47173;SDS011;36730;49.036;9.094;2022-09-29T11:37:46;72.15;;;18.38;;
47173;SDS011;36730;49.036;9.094;2022-09-29T11:40:28;70.22;;;19.65;;
47173;SDS011;36730;49.036;9.094;2022-09-29T11:49:03;34.80;;;13.35;;
47173;SDS011;36730;49.036;9.094;2022-09-29T11:59:42;89.45;;;20.00;;
47173;SDS011;36730;49.036;9.094;2022-09-29T12:11:03;36.80;;;12.70;;
47173;SDS011;36730;49.036;9.094;2022-09-29T12:13:37;38.55;;;12.80;;
47173;SDS011;36730;49.036;9.094;2022-09-29T12:16:10;38.72;;;12.65;;
47173;SDS011;36730;49.036;9.094;2022-09-29T12:18:49;42.05;;;12.40;;
47173;SDS011;36730;49.036;9.094;2022-09-29T12:21:28;28.27;;;9.45;;
47173;SDS011;36730;49.036;9.094;2022-09-29T12:24:16;20.63;;;8.77;;
47173;SDS011;36730;49.036;9.094;2022-09-29T12:26:59;34.20;;;12.38;;
47173;SDS011;36730;49.036;9.094;2022-09-29T12:32:02;34.15;;;13.65;;
47173;SDS011;36730;49.036;9.094;2022-09-29T12:34:41;30.70;;;14.93;;
47173;SDS011;36730;49.036;9.094;2022-09-29T12:42:27;37.50;;;16.88;;
47173;SDS011;36730;49.036;9.094;2022-09-29T12:47:49;48.95;;;18.25;;
47173;SDS011;36730;49.036;9.094;2022-09-29T12:50:17;50.15;;;16.92;;
47173;SDS011;36730;49.036;9.094;2022-09-29T12:52:57;38.47;;;14.23;;
47173;SDS011;36730;49.036;9.094;2022-09-29T12:58:07;38.25;;;15.00;;
47173;SDS011;36730;49.036;9.094;2022-09-29T13:00:40;40.03;;;15.30;;
47173;SDS011;36730;49.036;9.094;2022-09-29T13:05:53;61.47;;;19.48;;
47173;SDS011;36730;49.036;9.094;2022-09-29T13:11:25;40.57;;;12.67;;
47173;SDS011;36730;49.036;9.094;2022-09-29T13:14:09;52.65;;;15.82;;
47173;SDS011;36730;49.036;9.094;2022-09-29T13:22:23;56.63;;;19.65;;
47173;SDS011;36730;49.036;9.094;2022-09-29T13:25:00;47.33;;;13.65;;
47173;SDS011;36730;49.036;9.094;2022-09-29T13:27:42;84.25;;;20.52;;
47173;SDS011;36730;49.036;9.094;2022-09-29T13:33:36;84.23;;;21.23;;
47173;SDS011;36730;49.036;9.094;2022-09-29T13:35:39;75.57;;;16.77;;
47173;SDS011;36730;49.036;9.094;2022-09-29T13:38:10;49.00;;;12.90;;
47173;SDS011;36730;49.036;9.094;2022-09-29T13:41:07;40.95;;;13.25;;
47173;SDS011;36730;49.036;9.094;2022-09-29T13:54:26;21.92;;;7.50;;
47173;SDS011;36730;49.036;9.094;2022-09-29T13:56:58;27.35;;;8.88;;
47173;SDS011;36730;49.036;9.094;2022-09-29T13:59:24;21.92;;;7.25;;
47173;SDS011;36730;49.036;9.094;2022-09-29T14:01:51;17.25;;;6.60;;
47173;SDS011;36730;49.036;9.094;2022-09-29T14:07:04;13.52;;;6.68;;
47173;SDS011;36730;49.036;9.094;2022-09-29T14:09:33;12.07;;;5.40;;
47173;SDS011;36730;49.036;9.094;2022-09-29T14:12:14;17.67;;;5.60;;
47173;SDS011;36730;49.036;9.094;2022-09-29T14:14:44;21.48;;;6.53;;
47173;SDS011;36730;49.036;9.094;2022-09-29T14:17:25;18.58;;;6.45;;
47173;SDS011;36730;49.036;9.094;2022-09-29T14:27:38;18.27;;;6.07;;
47173;SDS011;36730;49.036;9.094;2022-09-29T14:41:03;16.52;;;5.07;;
47173;SDS011;36730;49.036;9.094;2022-09-29T14:43:45;15.73;;;6.03;;
47173;SDS011;36730;49.036;9.094;2022-09-29T14:49:30;10.52;;;5.57;;
47173;SDS011;36730;49.036;9.094;2022-09-29T15:03:15;20.48;;;6.05;;
47173;SDS011;36730;49.036;9.094;2022-09-29T15:06:08;15.38;;;5.32;;
47173;SDS011;36730;49.036;9.094;2022-09-29T15:08:37;18.07;;;5.67;;
47173;SDS011;36730;49.036;9.094;2022-09-29T15:13:47;20.60;;;6.30;;
47173;SDS011;36730;49.036;9.094;2022-09-29T15:16:21;10.07;;;5.93;;
47173;SDS011;36730;49.036;9.094;2022-09-29T15:27:03;15.10;;;5.50;;
47173;SDS011;36730;49.036;9.094;2022-09-29T15:29:33;11.90;;;4.50;;
47173;SDS011;36730;49.036;9.094;2022-09-29T15:31:59;17.93;;;5.43;;
47173;SDS011;36730;49.036;9.094;2022-09-29T15:34:26;7.65;;;4.43;;
47173;SDS011;36730;49.036;9.094;2022-09-29T15:36:52;11.97;;;4.57;;
47173;SDS011;36730;49.036;9.094;2022-09-29T15:47:36;11.88;;;4.95;;
47173;SDS011;36730;49.036;9.094;2022-09-29T15:50:21;9.27;;;4.38;;
47173;SDS011;36730;49.036;9.094;2022-09-29T15:52:48;19.92;;;7.00;;
47173;SDS011;36730;49.036;9.094;2022-09-29T15:55:15;18.60;;;6.72;;
47173;SDS011;36730;49.036;9.094;2022-09-29T16:02:51;20.60;;;7.40;;
47173;SDS011;36730;49.036;9.094;2022-09-29T16:05:42;16.77;;;8.88;;
47173;SDS011;36730;49.036;9.094;2022-09-29T16:08:22;26.50;;;10.13;;
47173;SDS011;36730;49.036;9.094;2022-09-29T16:10:56;24.52;;;9.77;;
47173;SDS011;36730;49.036;9.094;2022-09-29T16:13:24;30.63;;;12.55;;
47173;SDS011;36730;49.036;9.094;2022-09-29T16:15:56;49.97;;;18.10;;
47173;SDS011;36730;49.036;9.094;2022-09-29T16:18:28;36.88;;;14.80;;
47173;SDS011;36730;49.036;9.094;2022-09-29T16:21:04;37.55;;;14.18;;
47173;SDS011;36730;49.036;9.094;2022-09-29T16:26:10;45.30;;;17.88;;
47173;SDS011;36730;49.036;9.094;2022-09-29T16:28:39;44.65;;;17.23;;
47173;SDS011;36730;49.036;9.094;2022-09-29T16:31:24;55.70;;;19.83;;
47173;SDS011;36730;49.036;9.094;2022-09-29T16:33:53;42.60;;;15.45;;
47173;SDS011;36730;49.036;9.094;2022-09-29T16:36:25;38.40;;;16.17;;
47173;SDS011;36730;49.036;9.094;2022-09-29T16:38:51;43.83;;;19.15;;
47173;SDS011;36730;49.036;9.094;2022-09-29T16:51:57;50.30;;;19.17;;
47173;SDS011;36730;49.036;9.094;2022-09-29T16:54:38;54.17;;;18.90;;
47173;SDS011;36730;49.036;9.094;2022-09-29T16:57:13;61.42;;;23.00;;
47173;SDS011;36730;49.036;9.094;2022-09-29T16:59:47;49.28;;;19.83;;
47173;SDS011;36730;49.036;9.094;2022-09-29T17:02:15;45.90;;;18.90;;
47173;SDS011;36730;49.036;9.094;2022-09-29T17:04:41;45.85;;;18.20;;
47173;SDS011;36730;49.036;9.094;2022-09-29T17:07:08;50.23;;;21.90;;
47173;SDS011;36730;49.036;9.094;2022-09-29T17:09:38;59.38;;;23.25;;
47173;SDS011;36730;49.036;9.094;2022-09-29T17:12:07;58.35;;;22.35;;
47173;SDS011;36730;49.036;9.094;2022-09-29T17:14:38;53.97;;;23.20;;
47173;SDS011;36730;49.036;9.094;2022-09-29T17:17:04;53.15;;;20.70;;
47173;SDS011;36730;49.036;9.094;2022-09-29T17:19:29;48.13;;;20.30;;
47173;SDS011;36730;49.036;9.094;2022-09-29T17:21:55;51.20;;;20.03;;
47173;SDS011;36730;49.036;9.094;2022-09-29T17:24:22;56.53;;;21.50;;
47173;SDS011;36730;49.036;9.094;2022-09-29T17:26:47;61.40;;;24.77;;
47173;SDS011;36730;49.036;9.094;2022-09-29T17:29:32;50.30;;;20.85;;
47173;SDS011;36730;49.036;9.094;2022-09-29T17:34:26;53.42;;;21.90;;
47173;SDS011;36730;49.036;9.094;2022-09-29T17:36:57;58.90;;;23.75;;
47173;SDS011;36730;49.036;9.094;2022-09-29T17:39:25;56.15;;;22.58;;
47173;SDS011;36730;49.036;9.094;2022-09-29T17:41:51;43.95;;;21.38;;
47173;SDS011;36730;49.036;9.094;2022-09-29T17:44:16;51.20;;;22.00;;
47173;SDS011;36730;49.036;9.094;2022-09-29T17:46:43;60.05;;;22.40;;
47173;SDS011;36730;49.036;9.094;2022-09-29T17:49:13;60.20;;;22.30;;
47173;SDS011;36730;49.036;9.094;2022-09-29T17:51:41;64.78;;;27.17;;
47173;SDS011;36730;49.036;9.094;2022-09-29T17:54:07;72.87;;;30.60;;
47173;SDS011;36730;49.036;9.094;2022-09-29T17:56:34;74.20;;;30.97;;
47173;SDS011;36730;49.036;9.094;2022-09-29T17:59:04;91.78;;;38.28;;
47173;SDS011;36730;49.036;9.094;2022-09-29T18:01:30;91.30;;;38.55;;
47173;SDS011;36730;49.036;9.094;2022-09-29T18:04:00;80.82;;;38.65;;
47173;SDS011;36730;49.036;9.094;2022-09-29T18:06:29;85.80;;;39.75;;
47173;SDS011;36730;49.036;9.094;2022-09-29T18:08:56;101.65;;;42.92;;
47173;SDS011;36730;49.036;9.094;2022-09-29T18:11:23;100.03;;;42.60;;
47173;SDS011;36730;49.036;9.094;2022-09-29T18:13:50;98.65;;;43.70;;
47173;SDS011;36730;49.036;9.094;2022-09-29T18:16:22;100.18;;;43.17;;
47173;SDS011;36730;49.036;9.094;2022-09-29T18:18:47;101.40;;;43.40;;
47173;SDS011;36730;49.036;9.094;2022-09-29T18:21:15;93.70;;;42.03;;